sensor_id;sensor_type;location;lat;lon;timestamp;P1;durP1;ratioP1;P2;durP2;ratioP2
70008;SDS011;59542;37.950;-122.338;2023-03-23T01:02:18;1.98;;;0.50;;
70008;SDS011;59542;37.950;-122.338;2023-03-23T01:04:45;1.50;;;0.30;;
70008;SDS011;59542;37.950;-122.338;2023-03-23T01:07:11;3.95;;;0.68;;
70008;SDS011;59542;37.950;-122.338;2023-03-23T01:09:38;1.95;;;0.63;;
70008;SDS011;59542;37.950;-122.338;2023-03-23T01:12:10;2.13;;;0.50;;
70008;SDS011;59542;37.950;-122.338;2023-03-23T01:14:37;5.85;;;0.73;;
70008;SDS011;59542;37.950;-122.338;2023-03-23T01:17:03;2.10;;;0.52;;
70008;SDS011;59542;37.950;-122.338;2023-03-23T01:19:30;2.47;;;0.68;;
70008;SDS011;59542;37.950;-122.338;2023-03-23T01:21:56;2.33;;;0.73;;
70008;SDS011;59542;37.950;-122.338;2023-03-23T01:24:22;2.08;;;0.80;;
70008;SDS011;59542;37.950;-122.338;2023-03-23T01:26:48;3.67;;;1.00;;
70008;SDS011;59542;37.950;-122.338;2023-03-23T01:29:15;2.72;;;0.80;;
70008;SDS011;59542;37.950;-122.338;2023-03-23T01:31:41;7.40;;;1.50;;
70008;SDS011;59542;37.950;-122.338;2023-03-23T01:34:08;6.28;;;1.33;;
70008;SDS011;59542;37.950;-122.338;2023-03-23T01:36:35;3.97;;;1.08;;
70008;SDS011;59542;37.950;-122.338;2023-03-23T01:39:03;3.42;;;1.17;;
70008;SDS011;59542;37.950;-122.338;2023-03-23T01:41:31;5.85;;;1.20;;
70008;SDS011;59542;37.950;-122.338;2023-03-23T01:46:33;7.53;;;1.67;;
70008;SDS011;59542;37.950;-122.338;2023-03-23T01:49:11;11.20;;;2.45;;
70008;SDS011;59542;37.950;-122.338;2023-03-23T01:51:44;5.95;;;1.67;;
70008;SDS011;59542;37.950;-122.338;2023-03-23T01:54:15;11.32;;;2.30;;
70008;SDS011;59542;37.950;-122.338;2023-03-23T01:56:47;7.10;;;1.90;;
70008;SDS011;59542;37.950;-122.338;2023-03-23T01:59:20;8.48;;;1.90;;
70008;SDS011;59542;37.950;-122.338;2023-03-23T02:01:49;10.25;;;2.25;;
70008;SDS011;59542;37.950;-122.338;2023-03-23T02:04:17;10.35;;;2.13;;
70008;SDS011;59542;37.950;-122.338;2023-03-23T02:06:45;9.68;;;2.65;;
70008;SDS011;59542;37.950;-122.338;2023-03-23T02:09:12;10.35;;;2.53;;
70008;SDS011;59542;37.950;-122.338;2023-03-23T02:11:42;9.45;;;2.25;;
70008;SDS011;59542;37.950;-122.338;2023-03-23T02:14:10;12.73;;;2.38;;
70008;SDS011;59542;37.950;-122.338;2023-03-23T02:24:42;11.82;;;2.88;;
70008;SDS011;59542;37.950;-122.338;2023-03-23T02:30:25;11.35;;;2.75;;
70008;SDS011;59542;37.950;-122.338;2023-03-23T02:35:50;9.68;;;2.78;;
70008;SDS011;59542;37.950;-122.338;2023-03-23T02:40:59;16.52;;;3.45;;
70008;SDS011;59542;37.950;-122.338;2023-03-23T02:43:30;9.52;;;3.03;;
70008;SDS011;59542;37.950;-122.338;2023-03-23T02:46:03;12.38;;;2.80;;
70008;SDS011;59542;37.950;-122.338;2023-03-23T02:48:33;11.15;;;2.72;;
70008;SDS011;59542;37.950;-122.338;2023-03-23T02:51:01;17.25;;;3.40;;
70008;SDS011;59542;37.950;-122.338;2023-03-23T02:53:30;9.40;;;2.88;;
70008;SDS011;59542;37.950;-122.338;2023-03-23T02:56:02;13.93;;;3.00;;
70008;SDS011;59542;37.950;-122.338;2023-03-23T02:58:32;13.57;;;3.45;;
70008;SDS011;59542;37.950;-122.338;2023-03-23T03:00:59;12.10;;;2.83;;
70008;SDS011;59542;37.950;-122.338;2023-03-23T03:03:39;11.88;;;2.83;;
70008;SDS011;59542;37.950;-122.338;2023-03-23T03:06:19;10.88;;;3.05;;
70008;SDS011;59542;37.950;-122.338;2023-03-23T03:09:02;11.45;;;3.10;;
70008;SDS011;59542;37.950;-122.338;2023-03-23T03:11:42;13.30;;;2.85;;
70008;SDS011;59542;37.950;-122.338;2023-03-23T03:17:01;6.28;;;2.33;;
70008;SDS011;59542;37.950;-122.338;2023-03-23T03:19:45;8.10;;;1.98;;
70008;SDS011;59542;37.950;-122.338;2023-03-23T03:22:14;10.73;;;2.38;;
70008;SDS011;59542;37.950;-122.338;2023-03-23T03:24:42;9.00;;;2.03;;
70008;SDS011;59542;37.950;-122.338;2023-03-23T03:27:10;9.40;;;2.30;;
70008;SDS011;59542;37.950;-122.338;2023-03-23T03:29:45;9.63;;;2.05;;
70008;SDS011;59542;37.950;-122.338;2023-03-23T03:32:17;5.95;;;1.75;;
70008;SDS011;59542;37.950;-122.338;2023-03-23T03:34:48;7.25;;;2.38;;
70008;SDS011;59542;37.950;-122.338;2023-03-23T03:37:16;7.28;;;2.33;;
70008;SDS011;59542;37.950;-122.338;2023-03-23T03:39:44;8.13;;;2.70;;
70008;SDS011;59542;37.950;-122.338;2023-03-23T03:42:10;12.20;;;2.30;;
70008;SDS011;59542;37.950;-122.338;2023-03-23T03:44:36;10.70;;;2.30;;
70008;SDS011;59542;37.950;-122.338;2023-03-23T03:47:03;6.93;;;2.05;;
70008;SDS011;59542;37.950;-122.338;2023-03-23T03:49:29;13.57;;;2.80;;
70008;SDS011;59542;37.950;-122.338;2023-03-23T03:51:55;11.85;;;2.55;;
70008;SDS011;59542;37.950;-122.338;2023-03-23T03:54:22;11.27;;;2.15;;
70008;SDS011;59542;37.950;-122.338;2023-03-23T03:56:48;10.75;;;3.30;;
70008;SDS011;59542;37.950;-122.338;2023-03-23T03:59:17;9.65;;;2.33;;
70008;SDS011;59542;37.950;-122.338;2023-03-23T04:01:43;15.88;;;3.38;;
70008;SDS011;59542;37.950;-122.338;2023-03-23T04:04:09;16.25;;;3.47;;
70008;SDS011;59542;37.950;-122.338;2023-03-23T04:06:36;10.80;;;3.30;;
70008;SDS011;59542;37.950;-122.338;2023-03-23T04:09:03;12.07;;;3.50;;
70008;SDS011;59542;37.950;-122.338;2023-03-23T04:11:33;11.85;;;3.88;;
70008;SDS011;59542;37.950;-122.338;2023-03-23T04:14:00;16.70;;;3.28;;
70008;SDS011;59542;37.950;-122.338;2023-03-23T04:16:26;10.90;;;3.75;;
70008;SDS011;59542;37.950;-122.338;2023-03-23T04:18:55;19.73;;;3.72;;
70008;SDS011;59542;37.950;-122.338;2023-03-23T04:21:22;12.82;;;4.43;;
70008;SDS011;59542;37.950;-122.338;2023-03-23T04:23:48;20.73;;;3.40;;
70008;SDS011;59542;37.950;-122.338;2023-03-23T04:26:14;11.43;;;3.40;;
70008;SDS011;59542;37.950;-122.338;2023-03-23T04:28:41;23.27;;;4.47;;
70008;SDS011;59542;37.950;-122.338;2023-03-23T04:31:08;18.67;;;4.25;;
70008;SDS011;59542;37.950;-122.338;2023-03-23T04:33:34;17.08;;;3.85;;
70008;SDS011;59542;37.950;-122.338;2023-03-23T04:36:02;16.73;;;4.18;;
70008;SDS011;59542;37.950;-122.338;2023-03-23T04:38:29;19.63;;;4.53;;
70008;SDS011;59542;37.950;-122.338;2023-03-23T04:40:58;10.77;;;3.72;;
70008;SDS011;59542;37.950;-122.338;2023-03-23T04:43:27;11.82;;;4.63;;
70008;SDS011;59542;37.950;-122.338;2023-03-23T04:45:54;20.23;;;4.70;;
70008;SDS011;59542;37.950;-122.338;2023-03-23T04:48:25;15.25;;;4.40;;
70008;SDS011;59542;37.950;-122.338;2023-03-23T04:50:53;14.48;;;3.78;;
70008;SDS011;59542;37.950;-122.338;2023-03-23T04:53:20;13.55;;;4.00;;
70008;SDS011;59542;37.950;-122.338;2023-03-23T04:55:47;20.35;;;4.47;;
70008;SDS011;59542;37.950;-122.338;2023-03-23T04:58:14;12.70;;;3.83;;
70008;SDS011;59542;37.950;-122.338;2023-03-23T05:00:42;15.23;;;4.30;;
70008;SDS011;59542;37.950;-122.338;2023-03-23T05:03:17;15.88;;;4.40;;
70008;SDS011;59542;37.950;-122.338;2023-03-23T05:05:44;12.98;;;3.90;;
70008;SDS011;59542;37.950;-122.338;2023-03-23T05:08:20;25.30;;;4.60;;
70008;SDS011;59542;37.950;-122.338;2023-03-23T05:10:54;15.60;;;4.47;;
70008;SDS011;59542;37.950;-122.338;2023-03-23T05:13:22;11.32;;;3.53;;
70008;SDS011;59542;37.950;-122.338;2023-03-23T05:15:49;21.60;;;4.07;;
70008;SDS011;59542;37.950;-122.338;2023-03-23T05:18:15;15.15;;;3.95;;
70008;SDS011;59542;37.950;-122.338;2023-03-23T05:20:42;20.75;;;4.75;;
70008;SDS011;59542;37.950;-122.338;2023-03-23T05:23:09;14.45;;;3.85;;
70008;SDS011;59542;37.950;-122.338;2023-03-23T05:25:36;17.15;;;3.90;;
70008;SDS011;59542;37.950;-122.338;2023-03-23T05:28:11;12.35;;;3.55;;
70008;SDS011;59542;37.950;-122.338;2023-03-23T05:30:38;11.15;;;3.40;;
70008;SDS011;59542;37.950;-122.338;2023-03-23T05:33:05;10.75;;;3.83;;
70008;SDS011;59542;37.950;-122.338;2023-03-23T05:35:32;12.40;;;3.53;;
70008;SDS011;59542;37.950;-122.338;2023-03-23T05:37:58;12.75;;;3.80;;
70008;SDS011;59542;37.950;-122.338;2023-03-23T05:40:24;16.30;;;4.03;;
70008;SDS011;59542;37.950;-122.338;2023-03-23T05:42:53;10.13;;;3.97;;
70008;SDS011;59542;37.950;-122.338;2023-03-23T05:45:21;9.48;;;3.20;;
70008;SDS011;59542;37.950;-122.338;2023-03-23T05:47:48;15.43;;;3.75;;
70008;SDS011;59542;37.950;-122.338;2023-03-23T05:50:14;11.35;;;3.33;;
70008;SDS011;59542;37.950;-122.338;2023-03-23T05:52:41;18.23;;;3.58;;
70008;SDS011;59542;37.950;-122.338;2023-03-23T05:55:07;19.17;;;3.75;;
70008;SDS011;59542;37.950;-122.338;2023-03-23T05:57:34;12.60;;;3.60;;
70008;SDS011;59542;37.950;-122.338;2023-03-23T06:00:01;16.40;;;3.70;;
70008;SDS011;59542;37.950;-122.338;2023-03-23T06:02:38;13.38;;;3.63;;
70008;SDS011;59542;37.950;-122.338;2023-03-23T06:05:05;14.93;;;3.63;;
70008;SDS011;59542;37.950;-122.338;2023-03-23T06:07:32;11.50;;;4.00;;
70008;SDS011;59542;37.950;-122.338;2023-03-23T06:09:58;14.20;;;2.88;;
70008;SDS011;59542;37.950;-122.338;2023-03-23T06:12:25;13.73;;;3.55;;
70008;SDS011;59542;37.950;-122.338;2023-03-23T06:14:51;16.17;;;3.78;;
70008;SDS011;59542;37.950;-122.338;2023-03-23T06:17:18;13.05;;;3.90;;
70008;SDS011;59542;37.950;-122.338;2023-03-23T06:19:44;13.55;;;3.65;;
70008;SDS011;59542;37.950;-122.338;2023-03-23T06:22:12;10.48;;;2.97;;
70008;SDS011;59542;37.950;-122.338;2023-03-23T06:24:39;12.30;;;3.58;;
70008;SDS011;59542;37.950;-122.338;2023-03-23T06:27:05;11.38;;;3.22;;
70008;SDS011;59542;37.950;-122.338;2023-03-23T06:29:33;18.15;;;3.92;;
70008;SDS011;59542;37.950;-122.338;2023-03-23T06:32:00;16.95;;;3.85;;
70008;SDS011;59542;37.950;-122.338;2023-03-23T06:34:28;12.32;;;3.15;;
70008;SDS011;59542;37.950;-122.338;2023-03-23T06:36:55;10.77;;;3.22;;
70008;SDS011;59542;37.950;-122.338;2023-03-23T06:39:22;15.38;;;4.05;;
70008;SDS011;59542;37.950;-122.338;2023-03-23T06:41:49;16.45;;;3.92;;
70008;SDS011;59542;37.950;-122.338;2023-03-23T06:44:15;15.68;;;3.47;;
70008;SDS011;59542;37.950;-122.338;2023-03-23T06:46:42;8.80;;;3.15;;
70008;SDS011;59542;37.950;-122.338;2023-03-23T06:49:08;15.43;;;3.88;;
70008;SDS011;59542;37.950;-122.338;2023-03-23T06:51:35;13.10;;;3.00;;
70008;SDS011;59542;37.950;-122.338;2023-03-23T06:54:03;12.30;;;3.65;;
70008;SDS011;59542;37.950;-122.338;2023-03-23T06:56:30;11.43;;;3.58;;
70008;SDS011;59542;37.950;-122.338;2023-03-23T06:58:56;14.40;;;3.33;;
70008;SDS011;59542;37.950;-122.338;2023-03-23T07:01:23;18.13;;;3.88;;
70008;SDS011;59542;37.950;-122.338;2023-03-23T07:03:49;18.10;;;3.80;;
70008;SDS011;59542;37.950;-122.338;2023-03-23T07:06:15;18.52;;;3.60;;
70008;SDS011;59542;37.950;-122.338;2023-03-23T07:08:42;12.80;;;3.58;;
70008;SDS011;59542;37.950;-122.338;2023-03-23T07:11:08;15.60;;;3.97;;
70008;SDS011;59542;37.950;-122.338;2023-03-23T07:13:36;12.43;;;3.28;;
70008;SDS011;59542;37.950;-122.338;2023-03-23T07:16:04;9.43;;;2.90;;
70008;SDS011;59542;37.950;-122.338;2023-03-23T07:18:31;16.25;;;3.17;;
70008;SDS011;59542;37.950;-122.338;2023-03-23T07:20:58;16.52;;;4.07;;
70008;SDS011;59542;37.950;-122.338;2023-03-23T07:23:25;19.95;;;3.17;;
70008;SDS011;59542;37.950;-122.338;2023-03-23T07:25:51;16.70;;;3.47;;
70008;SDS011;59542;37.950;-122.338;2023-03-23T07:28:19;11.57;;;2.65;;
70008;SDS011;59542;37.950;-122.338;2023-03-23T07:30:45;6.45;;;2.60;;
70008;SDS011;59542;37.950;-122.338;2023-03-23T07:33:12;9.82;;;2.85;;
70008;SDS011;59542;37.950;-122.338;2023-03-23T07:35:38;12.45;;;3.08;;
70008;SDS011;59542;37.950;-122.338;2023-03-23T07:38:05;10.27;;;3.22;;
70008;SDS011;59542;37.950;-122.338;2023-03-23T07:40:32;9.40;;;3.03;;
70008;SDS011;59542;37.950;-122.338;2023-03-23T07:42:59;13.25;;;3.15;;
70008;SDS011;59542;37.950;-122.338;2023-03-23T07:45:26;10.95;;;2.45;;
70008;SDS011;59542;37.950;-122.338;2023-03-23T07:47:52;11.00;;;2.53;;
70008;SDS011;59542;37.950;-122.338;2023-03-23T07:50:19;12.63;;;2.75;;
70008;SDS011;59542;37.950;-122.338;2023-03-23T07:52:47;9.10;;;2.55;;
70008;SDS011;59542;37.950;-122.338;2023-03-23T07:55:14;11.45;;;3.05;;
70008;SDS011;59542;37.950;-122.338;2023-03-23T07:57:43;8.63;;;2.88;;
70008;SDS011;59542;37.950;-122.338;2023-03-23T08:00:12;17.33;;;3.03;;
70008;SDS011;59542;37.950;-122.338;2023-03-23T08:02:45;11.90;;;2.65;;
70008;SDS011;59542;37.950;-122.338;2023-03-23T08:05:14;10.27;;;2.30;;
70008;SDS011;59542;37.950;-122.338;2023-03-23T08:07:41;9.32;;;2.85;;
70008;SDS011;59542;37.950;-122.338;2023-03-23T08:10:08;7.82;;;2.50;;
70008;SDS011;59542;37.950;-122.338;2023-03-23T08:12:36;7.38;;;2.20;;
70008;SDS011;59542;37.950;-122.338;2023-03-23T08:15:04;8.10;;;3.13;;
70008;SDS011;59542;37.950;-122.338;2023-03-23T08:17:32;10.15;;;2.70;;
70008;SDS011;59542;37.950;-122.338;2023-03-23T08:19:59;10.38;;;2.83;;
70008;SDS011;59542;37.950;-122.338;2023-03-23T08:22:26;8.27;;;2.53;;
70008;SDS011;59542;37.950;-122.338;2023-03-23T08:24:54;5.95;;;2.42;;
70008;SDS011;59542;37.950;-122.338;2023-03-23T08:27:21;8.38;;;2.40;;
70008;SDS011;59542;37.950;-122.338;2023-03-23T08:29:47;9.90;;;2.22;;
70008;SDS011;59542;37.950;-122.338;2023-03-23T08:32:13;14.73;;;2.75;;
70008;SDS011;59542;37.950;-122.338;2023-03-23T08:34:40;5.30;;;2.22;;
70008;SDS011;59542;37.950;-122.338;2023-03-23T08:37:07;12.90;;;2.95;;
70008;SDS011;59542;37.950;-122.338;2023-03-23T08:39:34;7.93;;;2.40;;
70008;SDS011;59542;37.950;-122.338;2023-03-23T08:42:01;9.77;;;2.33;;
70008;SDS011;59542;37.950;-122.338;2023-03-23T08:44:27;10.25;;;2.97;;
70008;SDS011;59542;37.950;-122.338;2023-03-23T08:46:54;6.82;;;2.20;;
70008;SDS011;59542;37.950;-122.338;2023-03-23T08:49:23;8.05;;;2.70;;
70008;SDS011;59542;37.950;-122.338;2023-03-23T08:51:50;7.32;;;2.45;;
70008;SDS011;59542;37.950;-122.338;2023-03-23T08:54:17;7.65;;;2.65;;
70008;SDS011;59542;37.950;-122.338;2023-03-23T08:56:44;8.57;;;2.80;;
70008;SDS011;59542;37.950;-122.338;2023-03-23T08:59:10;15.82;;;3.25;;
70008;SDS011;59542;37.950;-122.338;2023-03-23T09:01:37;12.75;;;2.00;;
70008;SDS011;59542;37.950;-122.338;2023-03-23T09:04:03;8.88;;;2.45;;
70008;SDS011;59542;37.950;-122.338;2023-03-23T09:06:30;7.57;;;2.17;;
70008;SDS011;59542;37.950;-122.338;2023-03-23T09:08:56;10.88;;;2.38;;
70008;SDS011;59542;37.950;-122.338;2023-03-23T09:11:22;13.57;;;2.15;;
70008;SDS011;59542;37.950;-122.338;2023-03-23T09:13:48;11.27;;;2.15;;
70008;SDS011;59542;37.950;-122.338;2023-03-23T09:16:15;11.60;;;2.00;;
70008;SDS011;59542;37.950;-122.338;2023-03-23T09:18:41;10.10;;;2.10;;
70008;SDS011;59542;37.950;-122.338;2023-03-23T09:21:07;5.97;;;2.25;;
70008;SDS011;59542;37.950;-122.338;2023-03-23T09:23:34;6.63;;;1.77;;
70008;SDS011;59542;37.950;-122.338;2023-03-23T09:26:01;9.75;;;2.10;;
70008;SDS011;59542;37.950;-122.338;2023-03-23T09:28:28;7.43;;;1.98;;
70008;SDS011;59542;37.950;-122.338;2023-03-23T09:30:56;15.88;;;1.90;;
70008;SDS011;59542;37.950;-122.338;2023-03-23T09:33:24;7.10;;;2.20;;
70008;SDS011;59542;37.950;-122.338;2023-03-23T09:35:51;12.23;;;2.70;;
70008;SDS011;59542;37.950;-122.338;2023-03-23T09:38:17;9.38;;;2.05;;
70008;SDS011;59542;37.950;-122.338;2023-03-23T09:46:35;8.10;;;2.25;;
70008;SDS011;59542;37.950;-122.338;2023-03-23T09:49:11;11.13;;;2.53;;
70008;SDS011;59542;37.950;-122.338;2023-03-23T09:54:42;9.43;;;2.30;;
70008;SDS011;59542;37.950;-122.338;2023-03-23T09:57:17;9.02;;;2.40;;
70008;SDS011;59542;37.950;-122.338;2023-03-23T10:00:09;6.07;;;2.00;;
70008;SDS011;59542;37.950;-122.338;2023-03-23T10:02:54;9.90;;;2.13;;
70008;SDS011;59542;37.950;-122.338;2023-03-23T10:05:34;4.07;;;1.77;;
70008;SDS011;59542;37.950;-122.338;2023-03-23T10:08:01;7.25;;;2.05;;
70008;SDS011;59542;37.950;-122.338;2023-03-23T10:10:41;9.68;;;2.10;;
70008;SDS011;59542;37.950;-122.338;2023-03-23T10:16:14;10.88;;;2.75;;
70008;SDS011;59542;37.950;-122.338;2023-03-23T10:18:50;7.50;;;2.35;;
70008;SDS011;59542;37.950;-122.338;2023-03-23T10:21:29;9.25;;;2.38;;
70008;SDS011;59542;37.950;-122.338;2023-03-23T10:24:01;8.27;;;2.38;;
70008;SDS011;59542;37.950;-122.338;2023-03-23T10:26:39;6.28;;;1.80;;
70008;SDS011;59542;37.950;-122.338;2023-03-23T10:31:50;7.30;;;2.28;;
70008;SDS011;59542;37.950;-122.338;2023-03-23T10:34:47;10.23;;;2.28;;
70008;SDS011;59542;37.950;-122.338;2023-03-23T10:37:22;8.35;;;2.00;;
70008;SDS011;59542;37.950;-122.338;2023-03-23T10:39:56;8.90;;;2.30;;
70008;SDS011;59542;37.950;-122.338;2023-03-23T10:42:25;6.13;;;1.90;;
70008;SDS011;59542;37.950;-122.338;2023-03-23T10:44:53;10.93;;;2.67;;
70008;SDS011;59542;37.950;-122.338;2023-03-23T10:47:22;15.13;;;2.30;;
70008;SDS011;59542;37.950;-122.338;2023-03-23T10:50:11;7.65;;;1.95;;
70008;SDS011;59542;37.950;-122.338;2023-03-23T10:52:41;9.23;;;2.28;;
70008;SDS011;59542;37.950;-122.338;2023-03-23T10:55:13;7.43;;;1.85;;
70008;SDS011;59542;37.950;-122.338;2023-03-23T10:57:45;5.60;;;2.10;;
70008;SDS011;59542;37.950;-122.338;2023-03-23T11:00:20;5.50;;;1.35;;
70008;SDS011;59542;37.950;-122.338;2023-03-23T11:02:59;5.88;;;2.05;;
70008;SDS011;59542;37.950;-122.338;2023-03-23T11:05:50;6.13;;;1.60;;
70008;SDS011;59542;37.950;-122.338;2023-03-23T11:08:20;10.15;;;2.47;;
70008;SDS011;59542;37.950;-122.338;2023-03-23T11:10:53;7.95;;;2.03;;
70008;SDS011;59542;37.950;-122.338;2023-03-23T11:13:29;8.40;;;2.40;;
70008;SDS011;59542;37.950;-122.338;2023-03-23T11:15:57;5.03;;;1.70;;
70008;SDS011;59542;37.950;-122.338;2023-03-23T11:18:34;13.75;;;1.70;;
70008;SDS011;59542;37.950;-122.338;2023-03-23T11:21:03;5.65;;;1.92;;
70008;SDS011;59542;37.950;-122.338;2023-03-23T11:23:42;7.15;;;2.10;;
70008;SDS011;59542;37.950;-122.338;2023-03-23T11:26:27;9.48;;;1.85;;
70008;SDS011;59542;37.950;-122.338;2023-03-23T11:31:30;10.70;;;1.95;;
70008;SDS011;59542;37.950;-122.338;2023-03-23T11:34:03;7.55;;;2.30;;
70008;SDS011;59542;37.950;-122.338;2023-03-23T11:36:42;7.95;;;2.58;;
70008;SDS011;59542;37.950;-122.338;2023-03-23T11:39:21;6.72;;;1.83;;
70008;SDS011;59542;37.950;-122.338;2023-03-23T11:41:55;7.50;;;1.88;;
70008;SDS011;59542;37.950;-122.338;2023-03-23T11:44:23;10.88;;;2.33;;
70008;SDS011;59542;37.950;-122.338;2023-03-23T11:55:08;7.18;;;1.70;;
70008;SDS011;59542;37.950;-122.338;2023-03-23T11:57:41;8.75;;;2.08;;
70008;SDS011;59542;37.950;-122.338;2023-03-23T12:00:15;7.68;;;2.05;;
70008;SDS011;59542;37.950;-122.338;2023-03-23T12:16:30;10.00;;;2.17;;
70008;SDS011;59542;37.950;-122.338;2023-03-23T12:25:30;11.20;;;2.30;;
70008;SDS011;59542;37.950;-122.338;2023-03-23T12:30:49;8.38;;;2.08;;
70008;SDS011;59542;37.950;-122.338;2023-03-23T12:33:47;7.28;;;2.22;;
70008;SDS011;59542;37.950;-122.338;2023-03-23T12:36:50;9.82;;;1.80;;
70008;SDS011;59542;37.950;-122.338;2023-03-23T12:42:12;14.05;;;2.80;;
70008;SDS011;59542;37.950;-122.338;2023-03-23T12:44:53;11.15;;;1.98;;
70008;SDS011;59542;37.950;-122.338;2023-03-23T12:47:42;9.77;;;2.20;;
70008;SDS011;59542;37.950;-122.338;2023-03-23T12:50:24;8.27;;;1.80;;
70008;SDS011;59542;37.950;-122.338;2023-03-23T12:55:39;7.07;;;1.77;;
70008;SDS011;59542;37.950;-122.338;2023-03-23T12:58:21;14.95;;;2.28;;
70008;SDS011;59542;37.950;-122.338;2023-03-23T13:03:56;6.72;;;1.88;;
70008;SDS011;59542;37.950;-122.338;2023-03-23T13:09:03;6.63;;;2.03;;
70008;SDS011;59542;37.950;-122.338;2023-03-23T13:11:48;7.32;;;1.70;;
70008;SDS011;59542;37.950;-122.338;2023-03-23T13:28:32;4.63;;;1.75;;
70008;SDS011;59542;37.950;-122.338;2023-03-23T13:31:16;5.25;;;1.25;;
70008;SDS011;59542;37.950;-122.338;2023-03-23T13:33:51;9.93;;;2.05;;
70008;SDS011;59542;37.950;-122.338;2023-03-23T13:36:29;6.00;;;1.73;;
70008;SDS011;59542;37.950;-122.338;2023-03-23T13:39:04;5.72;;;1.30;;
70008;SDS011;59542;37.950;-122.338;2023-03-23T13:44:57;8.38;;;2.25;;
70008;SDS011;59542;37.950;-122.338;2023-03-23T14:06:05;5.95;;;1.88;;
70008;SDS011;59542;37.950;-122.338;2023-03-23T14:08:37;6.53;;;2.03;;
70008;SDS011;59542;37.950;-122.338;2023-03-23T14:11:25;8.95;;;1.73;;
70008;SDS011;59542;37.950;-122.338;2023-03-23T14:14:05;11.07;;;2.25;;
70008;SDS011;59542;37.950;-122.338;2023-03-23T14:16:39;11.02;;;2.45;;
70008;SDS011;59542;37.950;-122.338;2023-03-23T14:19:18;4.72;;;1.55;;
70008;SDS011;59542;37.950;-122.338;2023-03-23T14:21:49;7.13;;;1.80;;
70008;SDS011;59542;37.950;-122.338;2023-03-23T14:24:25;9.40;;;2.33;;
70008;SDS011;59542;37.950;-122.338;2023-03-23T14:27:08;9.45;;;2.03;;
70008;SDS011;59542;37.950;-122.338;2023-03-23T14:29:37;7.53;;;2.08;;
70008;SDS011;59542;37.950;-122.338;2023-03-23T14:32:05;6.80;;;2.15;;
70008;SDS011;59542;37.950;-122.338;2023-03-23T14:34:35;6.18;;;1.38;;
70008;SDS011;59542;37.950;-122.338;2023-03-23T14:37:02;13.18;;;2.25;;
70008;SDS011;59542;37.950;-122.338;2023-03-23T14:42:00;7.45;;;1.83;;
70008;SDS011;59542;37.950;-122.338;2023-03-23T14:44:29;6.53;;;1.70;;
70008;SDS011;59542;37.950;-122.338;2023-03-23T14:46:58;4.97;;;1.60;;
70008;SDS011;59542;37.950;-122.338;2023-03-23T14:49:30;9.98;;;1.70;;
70008;SDS011;59542;37.950;-122.338;2023-03-23T14:52:08;6.60;;;1.67;;
70008;SDS011;59542;37.950;-122.338;2023-03-23T14:54:36;7.70;;;2.00;;
70008;SDS011;59542;37.950;-122.338;2023-03-23T14:57:19;9.80;;;1.67;;
70008;SDS011;59542;37.950;-122.338;2023-03-23T14:59:54;6.97;;;1.80;;
70008;SDS011;59542;37.950;-122.338;2023-03-23T15:05:00;8.25;;;1.67;;
70008;SDS011;59542;37.950;-122.338;2023-03-23T15:07:40;8.85;;;1.60;;
70008;SDS011;59542;37.950;-122.338;2023-03-23T15:10:14;7.57;;;1.45;;
70008;SDS011;59542;37.950;-122.338;2023-03-23T15:12:44;3.90;;;1.65;;
70008;SDS011;59542;37.950;-122.338;2023-03-23T15:15:22;5.47;;;1.45;;
70008;SDS011;59542;37.950;-122.338;2023-03-23T15:17:52;13.93;;;2.47;;
70008;SDS011;59542;37.950;-122.338;2023-03-23T15:20:20;5.72;;;1.48;;
70008;SDS011;59542;37.950;-122.338;2023-03-23T15:22:49;3.10;;;1.17;;
70008;SDS011;59542;37.950;-122.338;2023-03-23T15:28:12;6.15;;;1.70;;
70008;SDS011;59542;37.950;-122.338;2023-03-23T15:30:51;5.55;;;1.60;;
70008;SDS011;59542;37.950;-122.338;2023-03-23T15:33:20;5.13;;;1.55;;
70008;SDS011;59542;37.950;-122.338;2023-03-23T15:35:52;6.57;;;1.67;;
70008;SDS011;59542;37.950;-122.338;2023-03-23T15:40:51;4.85;;;1.30;;
70008;SDS011;59542;37.950;-122.338;2023-03-23T15:43:25;3.80;;;1.30;;
70008;SDS011;59542;37.950;-122.338;2023-03-23T15:45:53;6.30;;;1.17;;
70008;SDS011;59542;37.950;-122.338;2023-03-23T15:48:21;2.70;;;1.00;;
70008;SDS011;59542;37.950;-122.338;2023-03-23T15:50:48;4.47;;;1.40;;
70008;SDS011;59542;37.950;-122.338;2023-03-23T15:55:49;4.72;;;1.17;;
70008;SDS011;59542;37.950;-122.338;2023-03-23T15:58:15;5.43;;;1.73;;
70008;SDS011;59542;37.950;-122.338;2023-03-23T16:00:42;6.72;;;1.38;;
70008;SDS011;59542;37.950;-122.338;2023-03-23T16:03:15;2.20;;;1.02;;
70008;SDS011;59542;37.950;-122.338;2023-03-23T16:05:45;3.55;;;1.30;;
70008;SDS011;59542;37.950;-122.338;2023-03-23T16:08:11;5.55;;;1.77;;
70008;SDS011;59542;37.950;-122.338;2023-03-23T16:10:38;5.53;;;1.13;;
70008;SDS011;59542;37.950;-122.338;2023-03-23T16:13:05;7.10;;;1.10;;
70008;SDS011;59542;37.950;-122.338;2023-03-23T16:15:31;4.30;;;1.27;;
70008;SDS011;59542;37.950;-122.338;2023-03-23T16:17:57;5.95;;;1.15;;
70008;SDS011;59542;37.950;-122.338;2023-03-23T16:20:24;3.95;;;0.93;;
70008;SDS011;59542;37.950;-122.338;2023-03-23T16:22:50;5.68;;;1.45;;
70008;SDS011;59542;37.950;-122.338;2023-03-23T16:25:17;5.90;;;0.80;;
70008;SDS011;59542;37.950;-122.338;2023-03-23T16:27:44;2.85;;;1.30;;
70008;SDS011;59542;37.950;-122.338;2023-03-23T16:30:18;3.80;;;1.10;;
70008;SDS011;59542;37.950;-122.338;2023-03-23T16:32:49;7.18;;;0.98;;
70008;SDS011;59542;37.950;-122.338;2023-03-23T16:35:15;4.20;;;0.93;;
70008;SDS011;59542;37.950;-122.338;2023-03-23T16:37:45;5.00;;;1.08;;
70008;SDS011;59542;37.950;-122.338;2023-03-23T16:40:16;5.75;;;1.35;;
70008;SDS011;59542;37.950;-122.338;2023-03-23T16:42:44;6.68;;;1.23;;
70008;SDS011;59542;37.950;-122.338;2023-03-23T16:45:11;7.15;;;1.38;;
70008;SDS011;59542;37.950;-122.338;2023-03-23T16:47:38;2.75;;;1.15;;
70008;SDS011;59542;37.950;-122.338;2023-03-23T16:50:06;5.70;;;1.17;;
70008;SDS011;59542;37.950;-122.338;2023-03-23T16:52:38;3.83;;;1.25;;
70008;SDS011;59542;37.950;-122.338;2023-03-23T16:55:06;4.25;;;1.10;;
70008;SDS011;59542;37.950;-122.338;2023-03-23T16:57:33;3.45;;;0.90;;
70008;SDS011;59542;37.950;-122.338;2023-03-23T17:00:03;3.03;;;0.80;;
70008;SDS011;59542;37.950;-122.338;2023-03-23T17:02:31;2.33;;;0.90;;
70008;SDS011;59542;37.950;-122.338;2023-03-23T17:04:58;10.52;;;1.30;;
70008;SDS011;59542;37.950;-122.338;2023-03-23T17:07:25;2.45;;;0.50;;
70008;SDS011;59542;37.950;-122.338;2023-03-23T17:09:51;4.57;;;0.95;;
70008;SDS011;59542;37.950;-122.338;2023-03-23T17:12:18;3.42;;;0.63;;
70008;SDS011;59542;37.950;-122.338;2023-03-23T17:14:45;2.50;;;1.00;;
70008;SDS011;59542;37.950;-122.338;2023-03-23T17:17:11;4.57;;;1.17;;
70008;SDS011;59542;37.950;-122.338;2023-03-23T17:19:37;6.80;;;1.20;;
70008;SDS011;59542;37.950;-122.338;2023-03-23T17:22:04;9.50;;;1.92;;
70008;SDS011;59542;37.950;-122.338;2023-03-23T17:24:30;7.28;;;0.98;;
70008;SDS011;59542;37.950;-122.338;2023-03-23T17:26:56;4.80;;;1.00;;
70008;SDS011;59542;37.950;-122.338;2023-03-23T17:29:22;7.00;;;1.45;;
70008;SDS011;59542;37.950;-122.338;2023-03-23T17:31:49;2.80;;;1.25;;